createdAt,value
2019-02-17T00:00:49.251Z,65.81
2019-02-17T00:01:49.257Z,63.95
2019-02-17T00:02:49.232Z,64.95
2019-02-17T00:03:49.218Z,64.53
2019-02-17T00:04:49.237Z,64.12
2019-02-17T00:05:49.204Z,64.02
2019-02-17T00:06:49.192Z,64.02
2019-02-17T00:07:49.180Z,63.57
2019-02-17T00:08:49.170Z,63.37
2019-02-17T00:09:49.195Z,63.26
2019-02-17T00:10:49.147Z,63.37
2019-02-17T00:11:49.140Z,63.19
2019-02-17T00:12:49.130Z,63.92
2019-02-17T00:13:49.126Z,63.78
2019-02-17T00:14:49.132Z,64.20
2019-02-17T00:15:49.095Z,63.37
2019-02-17T00:16:49.084Z,63.68
2019-02-17T00:17:49.077Z,63.16
2019-02-17T00:18:49.066Z,63.16
2019-02-17T00:19:49.084Z,63.47
2019-02-17T00:20:49.074Z,62.75
2019-02-17T00:21:49.035Z,61.99
2019-02-17T00:22:49.025Z,62.44
2019-02-17T00:23:49.017Z,62.23
2019-02-17T00:24:49.005Z,62.23
2019-02-17T00:25:49.020Z,63.16
2019-02-17T00:26:48.981Z,63.81
2019-02-17T00:27:48.973Z,64.67
2019-02-17T00:28:58.928Z,63.95
2019-02-17T00:29:49.944Z,64.74
2019-02-17T00:30:48.968Z,63.84
2019-02-17T00:31:48.932Z,65.08
2019-02-17T00:32:48.921Z,65.29
2019-02-17T00:33:48.908Z,64.23
2019-02-17T00:34:48.900Z,64.84
2019-02-17T00:35:48.916Z,64.12
2019-02-17T00:36:48.876Z,63.78
2019-02-17T00:37:48.870Z,63.81
2019-02-17T00:38:48.856Z,63.78
2019-02-17T00:39:48.847Z,64.37
2019-02-17T00:40:48.854Z,64.17
2019-02-17T00:41:48.822Z,63.03
2019-02-17T00:42:48.814Z,62.79
2019-02-17T00:43:48.796Z,62.38
2019-02-17T00:44:48.791Z,62.17
2019-02-17T00:45:48.814Z,61.87
2019-02-17T00:46:48.772Z,62.27
2019-02-17T00:47:48.761Z,62.30
2019-02-17T00:48:48.758Z,62.85
2019-02-17T00:49:48.739Z,63.23
2019-02-17T00:50:48.764Z,63.54
2019-02-17T00:51:48.723Z,63.47
2019-02-17T00:52:48.716Z,63.03
2019-02-17T00:53:48.701Z,62.62
2019-02-17T00:54:48.687Z,61.66
2019-02-17T00:55:48.811Z,61.97
2019-02-17T00:56:48.673Z,61.69
2019-02-17T00:57:48.658Z,62.20
2019-02-17T00:58:48.652Z,62.85
2019-02-17T00:59:48.637Z,63.68
2019-02-17T01:00:48.623Z,63.74
2019-02-17T01:01:48.633Z,64.04
2019-02-17T01:02:48.610Z,65.32
2019-02-17T01:03:48.602Z,65.53
2019-02-17T01:04:48.578Z,65.22
2019-02-17T01:05:48.575Z,65.73
2019-02-17T01:06:48.591Z,65.42
2019-02-17T01:07:48.543Z,65.53
2019-02-17T01:08:48.542Z,65.81
2019-02-17T01:09:48.540Z,65.53
2019-02-17T01:10:48.518Z,65.73
2019-02-17T01:11:48.540Z,65.84
2019-02-17T01:12:48.502Z,65.84
2019-02-17T01:13:48.499Z,65.53
2019-02-17T01:14:48.497Z,65.94
2019-02-17T01:15:48.472Z,65.42
2019-02-17T01:16:48.483Z,65.53
2019-02-17T01:17:48.451Z,65.84
2019-02-17T01:18:48.441Z,65.53
2019-02-17T01:19:48.429Z,65.53
2019-02-17T01:20:48.417Z,65.73
2019-02-17T01:21:48.430Z,65.94
2019-02-17T01:22:48.395Z,65.73
2019-02-17T01:23:48.389Z,65.84
2019-02-17T01:24:48.379Z,66.18
2019-02-17T01:25:48.366Z,66.18
2019-02-17T01:26:48.386Z,66.25
2019-02-17T01:27:48.352Z,66.77
2019-02-17T01:28:48.335Z,66.35
2019-02-17T01:29:48.324Z,66.49
2019-02-17T01:30:48.318Z,66.59
2019-02-17T01:31:48.335Z,66.93
2019-02-17T01:32:48.294Z,67.14
2019-02-17T01:33:48.283Z,67.17
2019-02-17T01:34:48.272Z,68.10
2019-02-17T01:35:48.261Z,68.65
2019-02-17T01:36:48.274Z,69.17
2019-02-17T01:37:48.240Z,69.42
2019-02-17T01:38:48.230Z,70.04
2019-02-17T01:39:48.224Z,70.45
2019-02-17T01:40:48.206Z,70.69
2019-02-17T01:41:48.221Z,71.42
2019-02-17T01:42:48.190Z,71.31
2019-02-17T01:43:48.178Z,71.70
2019-02-17T01:44:48.168Z,70.52
2019-02-17T01:45:48.156Z,69.38
2019-02-17T01:46:48.171Z,68.83
2019-02-17T01:47:48.149Z,68.73
2019-02-17T01:48:48.128Z,68.07
2019-02-17T01:49:48.114Z,68.28
2019-02-17T01:50:48.104Z,68.38
2019-02-17T01:51:48.170Z,68.80
2019-02-17T01:52:48.081Z,68.70
2019-02-17T01:53:48.078Z,68.07
2019-02-17T01:54:48.060Z,67.97
2019-02-17T01:55:48.060Z,68.38
2019-02-17T01:56:48.066Z,67.97
2019-02-17T01:57:48.030Z,67.97
2019-02-17T01:58:48.021Z,67.76
2019-02-17T01:59:48.011Z,68.07
2019-02-17T02:00:48.003Z,68.07
2019-02-17T02:01:47.989Z,68.49
2019-02-17T02:02:48.005Z,68.15
2019-02-17T02:03:47.972Z,68.15
2019-02-17T02:04:47.957Z,67.66
2019-02-17T02:05:47.948Z,68.59
2019-02-17T02:06:47.936Z,68.07
2019-02-17T02:07:47.959Z,69.11
2019-02-17T02:08:47.919Z,68.90
2019-02-17T02:09:47.916Z,68.38
2019-02-17T02:10:47.894Z,68.18
2019-02-17T02:11:47.888Z,67.94
2019-02-17T02:12:47.945Z,67.63
2019-02-17T02:13:47.859Z,67.08
2019-02-17T02:14:47.848Z,67.08
2019-02-17T02:15:47.846Z,67.60
2019-02-17T02:16:47.828Z,67.29
2019-02-17T02:17:47.843Z,67.49
2019-02-17T02:18:47.810Z,67.60
2019-02-17T02:19:47.800Z,67.42
2019-02-17T02:20:47.789Z,68.15
2019-02-17T02:21:47.783Z,68.15
2019-02-17T02:22:47.796Z,68.49
2019-02-17T02:23:47.760Z,68.77
2019-02-17T02:24:47.743Z,68.46
2019-02-17T02:25:47.735Z,68.70
2019-02-17T02:26:47.725Z,68.49
2019-02-17T02:27:47.737Z,69.01
2019-02-17T02:28:47.701Z,68.35
2019-02-17T02:29:47.693Z,68.46
2019-02-17T02:30:47.693Z,67.63
2019-02-17T02:31:47.672Z,67.49
2019-02-17T02:32:47.701Z,67.29
2019-02-17T02:33:47.651Z,67.60
2019-02-17T02:34:47.645Z,67.29
2019-02-17T02:35:47.634Z,67.39
2019-02-17T02:36:47.619Z,66.66
2019-02-17T02:37:47.636Z,66.77
2019-02-17T02:38:47.599Z,66.97
2019-02-17T02:39:47.588Z,66.97
2019-02-17T02:40:47.582Z,67.18
2019-02-17T02:41:47.568Z,67.49
2019-02-17T02:42:47.603Z,67.94
2019-02-17T02:43:47.546Z,68.70
2019-02-17T02:44:48.683Z,68.49
2019-02-17T02:45:47.524Z,69.04
2019-02-17T02:46:47.514Z,69.04
2019-02-17T02:47:47.526Z,69.97
2019-02-17T02:48:47.494Z,70.00
2019-02-17T02:49:47.484Z,70.94
2019-02-17T02:50:47.473Z,71.73
2019-02-17T02:51:47.463Z,71.94
2019-02-17T02:52:47.477Z,72.01
2019-02-17T02:53:47.445Z,71.66
2019-02-17T02:54:47.440Z,71.42
2019-02-17T02:55:47.422Z,70.15
2019-02-17T02:56:47.414Z,69.08
2019-02-17T02:57:47.422Z,68.35
2019-02-17T02:58:58.285Z,67.63
2019-02-17T02:59:52.474Z,68.15
2019-02-17T03:00:48.367Z,68.38
2019-02-17T03:01:47.367Z,69.04
2019-02-17T03:02:47.384Z,69.35
2019-02-17T03:03:47.341Z,70.42
2019-02-17T03:04:47.328Z,70.42
2019-02-17T03:05:47.316Z,71.04
2019-02-17T03:06:47.323Z,71.39
2019-02-17T03:07:47.320Z,71.59
2019-02-17T03:08:47.282Z,71.39
2019-02-17T03:09:47.278Z,72.42
2019-02-17T03:10:47.263Z,72.56
2019-02-17T03:11:47.249Z,72.97
2019-02-17T03:12:47.279Z,72.56
2019-02-17T03:13:47.233Z,73.18
2019-02-17T03:14:47.225Z,72.66
2019-02-17T03:15:47.212Z,72.63
2019-02-17T03:16:47.202Z,71.25
2019-02-17T03:17:47.189Z,70.36
2019-02-17T03:18:47.204Z,69.94
2019-02-17T03:19:47.167Z,68.90
2019-02-17T03:20:47.159Z,69.21
2019-02-17T03:21:47.150Z,69.32
2019-02-17T03:22:47.148Z,68.90
2019-02-17T03:23:47.150Z,68.80
2019-02-17T03:24:47.121Z,69.11
2019-02-17T03:25:47.109Z,68.59
2019-02-17T03:26:47.100Z,69.11
2019-02-17T03:27:47.091Z,68.90
2019-02-17T03:28:47.098Z,68.07
2019-02-17T03:29:47.061Z,68.56
2019-02-17T03:30:47.069Z,67.94
2019-02-17T03:31:47.051Z,67.42
2019-02-17T03:32:47.046Z,67.94
2019-02-17T03:33:47.049Z,67.94
2019-02-17T03:34:47.010Z,68.59
2019-02-17T03:35:47.002Z,68.49
2019-02-17T03:36:47.003Z,69.11
2019-02-17T03:37:46.978Z,69.01
2019-02-17T03:38:47.002Z,68.38
2019-02-17T03:39:46.959Z,69.14
2019-02-17T03:40:46.949Z,70.07
2019-02-17T03:41:46.941Z,69.79
2019-02-17T03:42:46.936Z,70.66
2019-02-17T03:43:46.947Z,71.49
2019-02-17T03:44:46.907Z,71.39
2019-02-17T03:45:46.897Z,71.49
2019-02-17T03:46:46.887Z,71.56
2019-02-17T03:47:46.872Z,71.39
2019-02-17T03:48:46.893Z,71.28
2019-02-17T03:49:46.855Z,71.39
2019-02-17T03:50:46.842Z,71.35
2019-02-17T03:51:46.851Z,71.25
2019-02-17T03:52:46.822Z,71.39
2019-02-17T03:53:46.839Z,71.70
2019-02-17T03:54:46.805Z,71.66
2019-02-17T03:55:46.799Z,71.39
2019-02-17T03:56:46.782Z,71.83
2019-02-17T03:57:46.775Z,72.45
2019-02-17T03:58:46.785Z,72.22
2019-02-17T03:59:46.758Z,72.25
2019-02-17T04:00:46.748Z,72.56
2019-02-17T04:01:46.731Z,72.87
2019-02-17T04:02:46.728Z,72.25
2019-02-17T04:03:46.738Z,73.60
2019-02-17T04:04:46.697Z,73.28
2019-02-17T04:05:46.693Z,73.80
2019-02-17T04:06:46.683Z,73.91
2019-02-17T04:07:46.671Z,74.01
2019-02-17T04:08:46.682Z,73.63
2019-02-17T04:09:46.649Z,73.94
2019-02-17T04:10:46.635Z,74.46
2019-02-17T04:11:46.631Z,74.26
2019-02-17T04:12:46.621Z,74.36
2019-02-17T04:13:46.629Z,74.67
2019-02-17T04:14:46.592Z,74.36
2019-02-17T04:15:46.582Z,74.67
2019-02-17T04:16:46.573Z,75.54
2019-02-17T04:17:46.565Z,76.16
2019-02-17T04:18:46.577Z,76.37
2019-02-17T04:19:46.541Z,75.85
2019-02-17T04:20:46.530Z,75.32
2019-02-17T04:21:46.517Z,75.40
2019-02-17T04:22:46.518Z,74.95
2019-02-17T04:23:46.521Z,74.05
2019-02-17T04:24:46.485Z,74.26
2019-02-17T04:25:46.479Z,74.57
2019-02-17T04:26:46.469Z,75.19
2019-02-17T04:27:46.453Z,75.85
2019-02-17T04:28:46.470Z,76.26
2019-02-17T04:29:46.436Z,76.57
2019-02-17T04:30:46.422Z,75.74
2019-02-17T04:31:46.419Z,75.57
2019-02-17T04:32:46.403Z,76.72
2019-02-17T04:33:46.420Z,77.55
2019-02-17T04:34:46.385Z,77.86
2019-02-17T04:35:46.374Z,76.92
2019-02-17T04:36:46.357Z,75.85
2019-02-17T04:37:46.354Z,75.29
2019-02-17T04:38:46.366Z,74.11
2019-02-17T04:39:46.332Z,73.49
2019-02-17T04:40:46.328Z,73.74
2019-02-17T04:41:46.311Z,73.28
2019-02-17T04:42:46.299Z,73.80
2019-02-17T04:43:46.320Z,72.87
2019-02-17T04:44:46.273Z,73.49
2019-02-17T04:45:46.272Z,73.63
2019-02-17T04:46:46.266Z,74.26
2019-02-17T04:47:46.270Z,73.63
2019-02-17T04:48:46.234Z,74.26
2019-02-17T04:49:46.268Z,74.36
2019-02-17T04:50:46.211Z,74.57
2019-02-17T04:51:46.203Z,74.26
2019-02-17T04:52:46.189Z,74.18
2019-02-17T04:53:46.185Z,74.18
2019-02-17T04:54:46.199Z,74.70
2019-02-17T04:55:46.158Z,74.39
2019-02-17T04:56:46.152Z,74.29
2019-02-17T04:57:46.141Z,74.80
2019-02-17T04:58:46.125Z,74.60
2019-02-17T04:59:46.205Z,74.91
2019-02-17T05:00:46.113Z,74.84
2019-02-17T05:01:46.102Z,75.57
2019-02-17T05:02:46.089Z,75.57
2019-02-17T05:03:46.140Z,75.88
2019-02-17T05:04:46.085Z,76.29
2019-02-17T05:05:46.057Z,75.98
2019-02-17T05:06:46.046Z,75.98
2019-02-17T05:07:46.037Z,75.88
2019-02-17T05:08:46.023Z,75.78
2019-02-17T05:09:46.040Z,75.67
2019-02-17T05:10:46.004Z,75.88
2019-02-17T05:11:45.992Z,75.15
2019-02-17T05:12:45.978Z,75.64
2019-02-17T05:13:45.971Z,75.98
2019-02-17T05:14:45.985Z,75.88
2019-02-17T05:15:45.948Z,76.61
2019-02-17T05:16:45.949Z,76.43
2019-02-17T05:17:45.928Z,76.75
2019-02-17T05:18:45.925Z,76.85
2019-02-17T05:19:45.929Z,76.64
2019-02-17T05:20:45.896Z,76.75
2019-02-17T05:21:45.897Z,77.16
2019-02-17T05:22:45.886Z,77.16
2019-02-17T05:23:45.869Z,77.09
2019-02-17T05:24:45.884Z,77.48
2019-02-17T05:25:45.842Z,77.20
2019-02-17T05:26:45.842Z,77.27
2019-02-17T05:27:45.823Z,77.37
2019-02-17T05:28:45.810Z,77.51
2019-02-17T05:29:45.830Z,77.20
2019-02-17T05:30:52.768Z,76.99
2019-02-17T05:31:46.785Z,77.30
2019-02-17T05:32:45.771Z,77.09
2019-02-17T05:33:45.771Z,77.72
2019-02-17T05:34:45.789Z,77.93
2019-02-17T05:35:45.737Z,78.14
2019-02-17T05:36:45.745Z,78.14
2019-02-17T05:37:45.717Z,77.72
2019-02-17T05:38:45.709Z,77.61
2019-02-17T05:39:45.723Z,77.93
2019-02-17T05:40:45.684Z,77.61
2019-02-17T05:41:45.677Z,77.51
2019-02-17T05:42:45.673Z,77.48
2019-02-17T05:43:45.659Z,77.40
2019-02-17T05:44:45.668Z,77.61
2019-02-17T05:45:45.633Z,77.93
2019-02-17T05:46:45.644Z,77.72
2019-02-17T05:47:45.617Z,77.72
2019-02-17T05:48:45.602Z,77.96
2019-02-17T05:49:45.650Z,78.17
2019-02-17T05:50:45.593Z,78.59
2019-02-17T05:51:45.574Z,78.17
2019-02-17T05:52:45.554Z,78.28
2019-02-17T05:53:45.545Z,78.07
2019-02-17T05:54:45.565Z,77.96
2019-02-17T05:55:45.524Z,78.07
2019-02-17T05:56:45.535Z,77.40
2019-02-17T05:57:45.510Z,77.40
2019-02-17T05:58:45.495Z,77.30
2019-02-17T05:59:45.555Z,77.20
2019-02-17T06:00:45.470Z,76.68
2019-02-17T06:01:45.470Z,76.68
2019-02-17T06:02:45.460Z,76.99
2019-02-17T06:03:45.446Z,77.30
2019-02-17T06:04:45.429Z,77.20
2019-02-17T06:05:45.451Z,77.23
2019-02-17T06:06:45.412Z,77.79
2019-02-17T06:07:45.415Z,78.20
2019-02-17T06:08:45.386Z,77.96
2019-02-17T06:09:45.381Z,77.75
2019-02-17T06:10:45.401Z,77.55
2019-02-17T06:11:45.358Z,77.65
2019-02-17T06:12:45.347Z,77.37
2019-02-17T06:13:45.359Z,77.89
2019-02-17T06:14:45.328Z,77.86
2019-02-17T06:15:45.353Z,77.86
2019-02-17T06:16:45.307Z,77.44
2019-02-17T06:17:45.296Z,77.09
2019-02-17T06:18:45.282Z,77.20
2019-02-17T06:19:45.282Z,76.99
2019-02-17T06:20:45.292Z,76.89
2019-02-17T06:21:45.255Z,76.57
2019-02-17T06:22:45.238Z,76.68
2019-02-17T06:23:45.230Z,76.68
2019-02-17T06:24:45.219Z,76.57
2019-02-17T06:25:45.235Z,77.20
2019-02-17T06:26:45.206Z,76.68
2019-02-17T06:27:45.190Z,76.57
2019-02-17T06:28:45.179Z,75.81
2019-02-17T06:29:45.168Z,76.02
2019-02-17T06:30:45.184Z,75.40
2019-02-17T06:31:45.150Z,75.60
2019-02-17T06:32:45.136Z,74.98
2019-02-17T06:33:45.129Z,74.98
2019-02-17T06:34:45.115Z,75.09
2019-02-17T06:35:45.128Z,75.29
2019-02-17T06:36:45.099Z,74.88
2019-02-17T06:37:45.083Z,74.35
2019-02-17T06:38:45.072Z,74.98
2019-02-17T06:39:45.160Z,74.77
2019-02-17T06:40:45.079Z,74.88
2019-02-17T06:41:45.052Z,74.88
2019-02-17T06:42:45.042Z,74.67
2019-02-17T06:43:45.021Z,74.15
2019-02-17T06:44:45.011Z,74.25
2019-02-17T06:45:45.028Z,74.57
2019-02-17T06:46:44.987Z,74.04
2019-02-17T06:47:44.980Z,74.43
2019-02-17T06:48:44.973Z,74.01
2019-02-17T06:49:44.957Z,74.11
2019-02-17T06:50:44.988Z,73.91
2019-02-17T06:51:44.939Z,73.91
2019-02-17T06:52:44.930Z,73.70
2019-02-17T06:53:44.916Z,74.32
2019-02-17T06:54:44.912Z,74.84
2019-02-17T06:55:44.923Z,74.32
2019-02-17T06:56:44.883Z,74.11
2019-02-17T06:57:44.881Z,74.01
2019-02-17T06:58:44.863Z,74.01
2019-02-17T06:59:44.851Z,73.70
2019-02-17T07:00:44.871Z,73.80
2019-02-17T07:01:44.836Z,73.70
2019-02-17T07:02:44.819Z,74.53
2019-02-17T07:03:44.810Z,73.46
2019-02-17T07:04:44.799Z,73.66
2019-02-17T07:05:44.843Z,73.25
2019-02-17T07:06:44.780Z,72.73
2019-02-17T07:07:44.779Z,72.28
2019-02-17T07:08:44.759Z,72.69
2019-02-17T07:09:44.743Z,72.38
2019-02-17T07:10:44.736Z,72.35
2019-02-17T07:11:44.751Z,71.76
2019-02-17T07:12:44.718Z,70.93
2019-02-17T07:13:44.704Z,71.42
2019-02-17T07:14:44.711Z,71.42
2019-02-17T07:15:44.684Z,71.73
2019-02-17T07:16:44.694Z,70.97
2019-02-17T07:17:44.666Z,70.48
2019-02-17T07:18:44.651Z,70.25
2019-02-17T07:19:44.643Z,70.00
2019-02-17T07:20:44.682Z,70.00
2019-02-17T07:21:44.651Z,68.96
2019-02-17T07:22:44.609Z,69.27
2019-02-17T07:23:44.612Z,68.73
2019-02-17T07:24:44.603Z,69.14
2019-02-17T07:25:44.582Z,68.93
2019-02-17T07:26:44.598Z,69.14
2019-02-17T07:27:44.559Z,69.04
2019-02-17T07:28:44.547Z,69.04
2019-02-17T07:29:44.555Z,68.93
2019-02-17T07:30:44.526Z,68.31
2019-02-17T07:31:44.537Z,68.00
2019-02-17T07:32:44.504Z,67.86
2019-02-17T07:33:44.495Z,67.45
2019-02-17T07:34:44.483Z,67.55
2019-02-17T07:35:44.471Z,67.35
2019-02-17T07:36:44.492Z,67.35
2019-02-17T07:37:44.452Z,66.72
2019-02-17T07:38:44.443Z,66.72
2019-02-17T07:39:44.431Z,67.00
2019-02-17T07:40:44.424Z,66.80
2019-02-17T07:41:44.438Z,66.49
2019-02-17T07:42:44.406Z,66.56
2019-02-17T07:43:44.390Z,66.66
2019-02-17T07:44:44.380Z,65.53
2019-02-17T07:45:44.367Z,65.94
2019-02-17T07:46:44.397Z,65.70
2019-02-17T07:47:44.350Z,65.29
2019-02-17T07:48:44.335Z,63.89
2019-02-17T07:49:44.323Z,62.04
2019-02-17T07:50:44.320Z,60.16
2019-02-17T07:51:44.304Z,58.86
2019-02-17T07:52:44.320Z,57.73
2019-02-17T07:53:44.358Z,57.39
2019-02-17T07:54:44.274Z,55.90
2019-02-17T07:55:44.259Z,54.87
2019-02-17T07:56:44.251Z,55.30
2019-02-17T07:57:44.267Z,54.90
2019-02-17T07:58:44.235Z,55.30
2019-02-17T07:59:44.219Z,54.46
2019-02-17T08:00:44.209Z,54.56
2019-02-17T08:01:45.610Z,55.10
2019-02-17T08:02:44.217Z,54.69
2019-02-17T08:03:44.178Z,54.35
2019-02-17T08:04:44.167Z,55.15
2019-02-17T08:05:44.157Z,53.71
2019-02-17T08:06:44.148Z,54.00
2019-02-17T08:07:44.169Z,52.84
2019-02-17T08:08:44.123Z,53.74
2019-02-17T08:09:44.116Z,52.07
2019-02-17T08:10:44.101Z,51.95
2019-02-17T08:11:44.097Z,50.69
2019-02-17T08:12:44.107Z,51.95
2019-02-17T08:13:44.096Z,50.90
2019-02-17T08:14:44.062Z,51.39
2019-02-17T08:15:44.052Z,50.67
2019-02-17T08:16:44.035Z,51.59
2019-02-17T08:17:44.053Z,49.72
2019-02-17T08:18:44.063Z,49.51
2019-02-17T08:19:44.003Z,48.34
2019-02-17T08:20:43.999Z,48.77
2019-02-17T08:21:43.991Z,49.95
2019-02-17T08:22:44.004Z,49.97
2019-02-17T08:23:43.964Z,51.46
2019-02-17T08:24:43.955Z,48.85
2019-02-17T08:25:43.950Z,47.50
2019-02-17T08:26:43.936Z,47.86
2019-02-17T08:27:44.019Z,46.11
2019-02-17T08:28:43.914Z,46.06
2019-02-17T08:29:43.899Z,45.25
2019-02-17T08:30:43.888Z,45.53
2019-02-17T08:31:43.885Z,46.37
2019-02-17T08:32:44.258Z,46.06
2019-02-17T08:33:43.882Z,46.57
2019-02-17T08:34:43.850Z,45.84
2019-02-17T08:35:43.838Z,45.45
2019-02-17T08:36:43.827Z,45.96
2019-02-17T08:37:43.841Z,45.88
2019-02-17T08:38:43.832Z,45.55
2019-02-17T08:39:43.792Z,46.00
2019-02-17T08:40:43.786Z,45.35
2019-02-17T08:41:43.773Z,44.51
2019-02-17T08:42:43.772Z,44.59
2019-02-17T08:43:43.777Z,44.20
2019-02-17T08:44:43.747Z,45.73
2019-02-17T08:45:43.727Z,44.61
2019-02-17T08:46:45.167Z,44.31
2019-02-17T08:47:43.707Z,44.37
2019-02-17T08:48:43.731Z,43.85
2019-02-17T08:49:43.692Z,43.94
2019-02-17T08:50:43.682Z,43.85
2019-02-17T08:51:43.663Z,44.38
2019-02-17T08:52:43.655Z,44.14
2019-02-17T08:53:43.675Z,43.14
2019-02-17T08:54:43.635Z,41.19
2019-02-17T08:55:43.625Z,41.07
2019-02-17T08:56:43.629Z,40.56
2019-02-17T08:57:43.599Z,39.64
2019-02-17T08:58:43.618Z,39.85
2019-02-17T08:59:52.320Z,39.46
2019-02-17T09:00:43.568Z,39.66
2019-02-17T09:01:43.566Z,39.87
2019-02-17T09:02:43.543Z,39.99
2019-02-17T09:03:43.571Z,41.84
2019-02-17T09:04:43.537Z,41.67
2019-02-17T09:05:44.436Z,43.44
2019-02-17T09:06:43.512Z,44.78
2019-02-17T09:07:43.504Z,44.06
2019-02-17T09:08:43.513Z,44.22
2019-02-17T09:09:43.474Z,43.20
2019-02-17T09:10:43.479Z,42.77
2019-02-17T09:11:43.451Z,42.77
2019-02-17T09:12:43.449Z,42.55
2019-02-17T09:13:43.460Z,41.63
2019-02-17T09:14:43.433Z,42.45
2019-02-17T09:15:43.430Z,41.63
2019-02-17T09:16:43.411Z,41.05
2019-02-17T09:17:43.392Z,41.84
2019-02-17T09:18:43.444Z,41.82
2019-02-17T09:19:43.381Z,40.62
2019-02-17T09:20:43.355Z,41.63
2019-02-17T09:21:43.347Z,41.74
2019-02-17T09:22:43.353Z,40.19
2019-02-17T09:23:43.334Z,41.31
2019-02-17T09:24:43.340Z,42.25
2019-02-17T09:25:43.317Z,41.74
2019-02-17T09:26:43.295Z,41.53
2019-02-17T09:27:43.282Z,41.63
2019-02-17T09:28:43.279Z,41.33
2019-02-17T09:29:43.292Z,40.70
2019-02-17T09:30:43.263Z,40.30
2019-02-17T09:31:43.253Z,41.05
2019-02-17T09:32:43.228Z,40.41
2019-02-17T09:33:43.222Z,41.06
2019-02-17T09:34:43.240Z,42.83
2019-02-17T09:35:43.199Z,43.65
2019-02-17T09:36:43.189Z,42.71
2019-02-17T09:37:43.175Z,42.47
2019-02-17T09:38:43.169Z,41.00
2019-02-17T09:39:43.177Z,40.60
2019-02-17T09:40:43.143Z,40.78
2019-02-17T09:41:43.136Z,40.88
2019-02-17T09:42:43.135Z,39.73
2019-02-17T09:43:45.504Z,39.30
2019-02-17T09:44:43.140Z,39.40
2019-02-17T09:45:43.162Z,39.42
2019-02-17T09:46:43.082Z,39.12
2019-02-17T09:47:43.072Z,39.40
2019-02-17T09:48:43.066Z,39.93
2019-02-17T09:49:43.084Z,39.42
2019-02-17T09:50:43.047Z,39.81
2019-02-17T09:51:43.038Z,39.32
2019-02-17T09:52:43.017Z,40.95
2019-02-17T09:53:43.014Z,40.64
2019-02-17T09:54:43.076Z,41.27
2019-02-17T09:55:42.984Z,41.49
2019-02-17T09:56:42.977Z,43.87
2019-02-17T09:57:42.972Z,45.59
2019-02-17T09:58:42.965Z,47.08
2019-02-17T09:59:42.972Z,45.78
2019-02-17T10:00:42.942Z,47.94
2019-02-17T10:01:42.919Z,47.66
2019-02-17T10:02:42.909Z,47.99
2019-02-17T10:03:42.902Z,47.89
2019-02-17T10:04:42.938Z,49.44
2019-02-17T10:05:42.877Z,49.96
2019-02-17T10:06:42.871Z,50.14
2019-02-17T10:07:42.860Z,49.63
2019-02-17T10:08:42.871Z,50.04
2019-02-17T10:09:42.864Z,49.71
2019-02-17T10:10:42.824Z,50.12
2019-02-17T10:11:42.819Z,48.86
2019-02-17T10:12:42.811Z,49.30
2019-02-17T10:13:42.792Z,49.93
2019-02-17T10:14:42.822Z,50.34
2019-02-17T10:15:42.770Z,50.73
2019-02-17T10:16:42.759Z,51.45
2019-02-17T10:17:42.746Z,51.04
2019-02-17T10:18:42.738Z,50.12
2019-02-17T10:19:42.886Z,49.60
2019-02-17T10:20:42.719Z,50.73
2019-02-17T10:21:42.703Z,50.20
2019-02-17T10:22:42.699Z,50.22
2019-02-17T10:23:42.685Z,51.54
2019-02-17T10:24:42.703Z,51.14
2019-02-17T10:25:42.664Z,51.45
2019-02-17T10:26:42.662Z,51.42
2019-02-17T10:27:42.646Z,51.04
2019-02-17T10:28:42.696Z,52.14
2019-02-17T10:29:42.656Z,52.34
2019-02-17T10:30:42.611Z,51.93
2019-02-17T10:31:42.599Z,51.62
2019-02-17T10:32:42.607Z,52.67
2019-02-17T10:33:42.581Z,52.47
2019-02-17T10:34:42.576Z,52.95
2019-02-17T10:35:42.603Z,52.95
2019-02-17T10:36:42.557Z,52.55
2019-02-17T10:37:42.541Z,53.44
2019-02-17T10:38:42.533Z,53.16
2019-02-17T10:39:42.518Z,53.06
2019-02-17T10:40:42.534Z,52.85
2019-02-17T10:41:42.500Z,53.47
2019-02-17T10:42:42.485Z,53.57
2019-02-17T10:43:42.476Z,53.85
2019-02-17T10:44:42.463Z,53.34
2019-02-17T10:45:42.475Z,53.85
2019-02-17T10:46:42.442Z,52.83
2019-02-17T10:47:42.445Z,52.72
2019-02-17T10:48:42.422Z,53.54
2019-02-17T10:49:42.414Z,53.52
2019-02-17T10:50:42.430Z,54.23
2019-02-17T10:51:42.394Z,54.36
2019-02-17T10:52:42.379Z,54.74
2019-02-17T10:53:42.369Z,53.92
2019-02-17T10:54:42.358Z,53.70
2019-02-17T10:55:42.373Z,52.78
2019-02-17T10:56:42.337Z,52.39
2019-02-17T10:57:42.324Z,52.29
2019-02-17T10:58:42.318Z,52.70
2019-02-17T10:59:42.308Z,52.80
2019-02-17T11:00:42.321Z,52.70
2019-02-17T11:01:42.282Z,52.91
2019-02-17T11:02:46.981Z,53.21
2019-02-17T11:03:43.265Z,52.60
2019-02-17T11:04:42.260Z,51.37
2019-02-17T11:05:42.267Z,51.98
2019-02-17T11:06:42.237Z,51.96
2019-02-17T11:07:42.220Z,51.48
2019-02-17T11:08:42.212Z,51.86
2019-02-17T11:09:42.201Z,52.27
2019-02-17T11:10:42.217Z,52.47
2019-02-17T11:11:42.184Z,54.00
2019-02-17T11:12:42.173Z,53.08
2019-02-17T11:13:42.156Z,51.45
2019-02-17T11:14:42.148Z,52.06
2019-02-17T11:15:42.186Z,52.45
2019-02-17T11:16:42.124Z,50.71
2019-02-17T11:17:42.120Z,50.10
2019-02-17T11:18:42.104Z,51.22
2019-02-17T11:19:42.099Z,51.12
2019-02-17T11:20:42.109Z,50.00
2019-02-17T11:21:42.071Z,48.88
2019-02-17T11:22:42.068Z,49.69
2019-02-17T11:23:42.055Z,49.69
2019-02-17T11:24:42.041Z,50.61
2019-02-17T11:25:42.056Z,49.49
2019-02-17T11:26:42.024Z,49.90
2019-02-17T11:27:42.012Z,50.41
2019-02-17T11:28:42.001Z,49.69
2019-02-17T11:29:41.991Z,50.00
2019-02-17T11:30:41.993Z,49.69
2019-02-17T11:31:41.971Z,49.46
2019-02-17T11:32:41.956Z,50.00
2019-02-17T11:33:41.948Z,48.03
2019-02-17T11:34:41.943Z,49.08
2019-02-17T11:35:41.951Z,48.26
2019-02-17T11:36:41.916Z,48.44
2019-02-17T11:37:41.913Z,48.24
2019-02-17T11:38:41.899Z,48.14
2019-02-17T11:39:41.883Z,47.12
2019-02-17T11:40:41.897Z,46.92
2019-02-17T11:41:41.865Z,47.42
2019-02-17T11:42:41.852Z,47.83
2019-02-17T11:43:41.845Z,47.63
2019-02-17T11:44:41.831Z,48.03
2019-02-17T11:45:41.842Z,48.32
2019-02-17T11:46:41.815Z,49.75
2019-02-17T11:47:41.799Z,49.54
2019-02-17T11:48:41.788Z,49.95
2019-02-17T11:49:41.777Z,48.83
2019-02-17T11:50:41.790Z,49.44
2019-02-17T11:51:41.759Z,49.65
2019-02-17T11:52:41.743Z,49.85
2019-02-17T11:53:41.735Z,49.65
2019-02-17T11:54:41.724Z,48.63
2019-02-17T11:55:41.742Z,49.44
2019-02-17T11:56:41.699Z,50.26
2019-02-17T11:57:41.696Z,49.93
2019-02-17T11:58:41.695Z,50.13
2019-02-17T11:59:41.669Z,49.90
2019-02-17T12:00:41.689Z,48.50
2019-02-17T12:01:41.655Z,47.69
2019-02-17T12:02:41.640Z,47.58
2019-02-17T12:03:41.649Z,47.97
2019-02-17T12:04:41.621Z,48.30
2019-02-17T12:05:41.630Z,46.85
2019-02-17T12:06:41.597Z,47.97
2019-02-17T12:07:41.588Z,46.64
2019-02-17T12:08:41.576Z,47.74
2019-02-17T12:09:41.568Z,47.26
2019-02-17T12:10:41.578Z,47.74
2019-02-17T12:11:41.543Z,47.13
2019-02-17T12:12:41.543Z,47.24
2019-02-17T12:13:41.533Z,45.99
2019-02-17T12:14:41.516Z,45.56
2019-02-17T12:15:41.528Z,46.91
2019-02-17T12:16:41.494Z,45.89
2019-02-17T12:17:41.481Z,47.01
2019-02-17T12:18:41.470Z,47.62
2019-02-17T12:19:41.460Z,47.11
2019-02-17T12:20:41.503Z,46.60
2019-02-17T12:21:41.447Z,46.91
2019-02-17T12:22:41.423Z,47.39
2019-02-17T12:23:41.411Z,45.28
2019-02-17T12:24:41.406Z,45.48
2019-02-17T12:25:41.391Z,45.89
2019-02-17T12:26:41.408Z,45.79
2019-02-17T12:27:41.373Z,45.68
2019-02-17T12:28:41.364Z,45.89
2019-02-17T12:29:41.353Z,46.09
2019-02-17T12:30:41.341Z,46.68
2019-02-17T12:31:41.355Z,45.46
2019-02-17T12:32:41.327Z,45.56
2019-02-17T12:33:41.311Z,44.95
2019-02-17T12:34:41.305Z,45.76
2019-02-17T12:35:41.287Z,45.87
2019-02-17T12:36:41.303Z,45.26
2019-02-17T12:37:41.263Z,44.54
2019-02-17T12:38:41.256Z,44.34
2019-02-17T12:39:41.243Z,45.26
2019-02-17T12:40:41.237Z,45.76
2019-02-17T12:41:41.248Z,45.76
2019-02-17T12:42:41.213Z,45.26
2019-02-17T12:43:41.204Z,45.24
2019-02-17T12:44:41.191Z,45.24
2019-02-17T12:45:41.182Z,44.32
2019-02-17T12:46:41.197Z,44.22
2019-02-17T12:47:41.167Z,45.01
2019-02-17T12:48:41.148Z,44.51
2019-02-17T12:49:41.139Z,43.99
2019-02-17T12:50:41.128Z,44.32
2019-02-17T12:51:41.148Z,44.83
2019-02-17T12:52:46.974Z,44.63